LFSG/EPL METAR and TAF weather

Enter ICAO airport designator
Station Type Date Time Source
LFSG METAR 2022/08/16 18:30 UTC NOAA

LFSG 161830Z AUTO 09001KT CAVOK 25/13 Q1009


Station Type Date Time Source
LFSG Decoded METAR 2022/08/16 18:30 UTC NOAA

Station name not available
Aug 16, 2022 - 02:30 PM EDT / 2022.08.16 1830 UTC
Wind: from the E (090 degrees) at 1 MPH (1 KT):0
Visibility: greater than 7 mile(s):0
Temperature: 77 F (25 C)
Dew Point: 55 F (13 C)
Relative Humidity: 47%
Pressure (altimeter): 29.80 in. Hg (1009 hPa)
ob: LFSG 161830Z AUTO 09001KT CAVOK 25/13 Q1009
cycle: 18

Station Type Date Time Source
LFSG TAF UTC NOAA

Error!

Example: see airport list